Time;durP1;ratioP1;P1;durP2;ratioP2;P2;SDS_P1;SDS_P2;PMS_P1;PMS_P2;Temp;Humidity;BMP_temperature;BMP_pressure;BME280_temperature;BME280_humidity;BME280_pressure;Samples;Min_cycle;Max_cycle;Signal;HPM_P1;HPM_P2
2022/08/04 00:02:24;;;;;;;9.45;3.28;;;;;;;23.75;64.51;100532.38;5025289;28;20682;-78
2022/08/04 00:04:55;;;;;;;8.05;3.30;;;;;;;23.73;64.74;100531.00;5024452;28;20049;-78
2022/08/04 00:07:26;;;;;;;6.57;3.30;;;;;;;23.75;64.91;100534.22;5030481;28;20060;-77
2022/08/04 00:10:01;;;;;;;7.00;3.53;;;;;;;23.72;65.07;100524.84;5021408;28;20050;-78
2022/08/04 00:12:32;;;;;;;5.60;3.67;;;;;;;23.73;64.93;100526.47;5026559;28;20107;-78
2022/08/04 00:15:01;;;;;;;11.02;3.75;;;;;;;23.63;65.74;100525.53;5031113;28;20528;-78
2022/08/04 00:17:36;;;;;;;12.77;3.80;;;;;;;23.55;65.92;100521.41;5035383;28;20084;-78
2022/08/04 00:20:04;;;;;;;9.20;3.78;;;;;;;23.46;65.99;100515.63;5029274;28;20069;-78
2022/08/04 00:22:34;;;;;;;7.15;3.60;;;;;;;23.38;66.13;100524.03;5025975;28;20149;-78
2022/08/04 00:25:03;;;;;;;11.63;3.42;;;;;;;23.31;66.75;100525.25;5023412;28;20082;-78
2022/08/04 00:27:32;;;;;;;10.40;3.72;;;;;;;23.27;66.91;100529.44;5036264;28;20159;-78
2022/08/04 00:29:59;;;;;;;10.25;3.60;;;;;;;23.31;66.76;100517.22;5047162;28;20041;-78
2022/08/04 00:32:27;;;;;;;7.57;3.50;;;;;;;23.34;66.51;100516.75;5042959;28;20057;-78
2022/08/04 00:34:54;;;;;;;6.20;3.88;;;;;;;23.31;66.71;100518.03;5049119;28;20064;-78
2022/08/04 00:37:22;;;;;;;7.95;3.97;;;;;;;23.26;66.83;100514.47;5043946;28;20061;-79
2022/08/04 00:39:49;;;;;;;8.55;3.50;;;;;;;23.17;67.69;100506.88;5039475;28;20037;-79
2022/08/04 00:42:42;;;;;;;7.57;3.60;;;;;;;23.13;67.66;100502.28;5051891;28;20603;-78
2022/08/04 00:45:27;;;;;;;7.68;3.45;;;;;;;22.95;68.53;100497.16;5036421;28;20053;-78
2022/08/04 00:48:08;;;;;;;10.48;4.05;;;;;;;22.77;69.12;100490.13;5032829;28;20129;-78
2022/08/04 00:50:44;;;;;;;8.48;3.78;;;;;;;22.73;68.95;100505.78;5023761;28;20061;-78
2022/08/04 00:53:18;;;;;;;7.00;3.60;;;;;;;22.72;69.54;100503.38;5027996;28;20081;-78
2022/08/04 00:56:01;;;;;;;7.97;4.05;;;;;;;22.75;69.91;100501.03;5025014;28;20077;-78
2022/08/04 00:58:42;;;;;;;8.23;3.53;;;;;;;22.76;69.75;100500.00;5032062;28;20081;-78
2022/08/04 01:01:19;;;;;;;10.07;3.63;;;;;;;22.74;69.67;100499.41;5041212;28;20128;-78
2022/08/04 01:03:58;;;;;;;9.55;3.90;;;;;;;22.75;69.51;100490.38;5032779;28;20081;-78
2022/08/04 01:06:35;;;;;;;8.20;3.88;;;;;;;22.81;69.26;100491.31;5034306;28;20087;-78
2022/08/04 01:09:25;;;;;;;10.07;3.67;;;;;;;22.82;69.27;100488.41;5030911;28;20129;-78
2022/08/04 01:12:08;;;;;;;7.55;3.78;;;;;;;22.90;68.88;100497.06;5025027;28;20405;-77
2022/08/04 01:15:05;;;;;;;;;;;;;;;22.86;69.36;100495.91;5034720;28;20042;-78
2022/08/04 01:17:48;;;;;;;6.30;3.47;;;;;;;22.80;69.68;100495.81;5036825;28;19928;-78
2022/08/04 01:20:20;;;;;;;8.55;3.72;;;;;;;22.70;70.97;100500.94;5029827;28;20048;-78
2022/08/04 01:23:24;;;;;;;8.38;3.65;;;;;;;22.56;71.35;100504.97;5026151;28;20432;-78
2022/08/04 01:26:13;;;;;;;9.13;3.67;;;;;;;22.45;71.60;100503.94;5029991;28;20041;-77
2022/08/04 01:29:09;;;;;;;8.52;3.80;;;;;;;22.39;71.94;100504.91;5034427;28;20180;-78
2022/08/04 01:31:59;;;;;;;6.03;3.80;;;;;;;22.18;72.38;100498.38;5029137;28;20388;-78
2022/08/04 01:34:30;;;;;;;12.50;3.90;;;;;;;22.20;72.41;100505.31;5039202;28;20075;-78
2022/08/04 01:37:00;;;;;;;11.35;4.18;;;;;;;22.11;72.66;100489.69;5024428;28;20136;-78
2022/08/04 01:39:40;;;;;;;6.93;4.00;;;;;;;22.09;72.78;100496.28;5028871;28;20045;-78
2022/08/04 01:42:08;;;;;;;8.57;3.88;;;;;;;22.08;72.60;100498.16;5031223;28;20113;-78
2022/08/04 01:44:36;;;;;;;6.43;3.63;;;;;;;22.06;72.41;100500.22;5030976;28;20418;-78
2022/08/04 01:47:06;;;;;;;11.63;4.25;;;;;;;22.01;72.88;100493.94;5043645;28;20081;-78
2022/08/04 01:49:32;;;;;;;8.77;3.75;;;;;;;22.01;72.75;100492.13;5031834;28;20069;-78
2022/08/04 01:52:00;;;;;;;7.43;3.58;;;;;;;22.03;72.38;100494.56;5028948;28;20388;-78
2022/08/04 01:54:27;;;;;;;9.20;4.03;;;;;;;22.00;73.11;100492.34;5032246;28;20069;-78
2022/08/04 01:56:55;;;;;;;7.80;3.90;;;;;;;22.04;73.01;100499.66;5035904;28;20070;-78
2022/08/04 01:59:22;;;;;;;7.43;3.67;;;;;;;22.01;72.60;100496.63;5033805;28;20053;-78
2022/08/04 02:01:49;;;;;;;10.65;3.75;;;;;;;22.05;72.76;100495.13;5030971;28;20413;-78
2022/08/04 02:04:19;;;;;;;7.70;3.65;;;;;;;22.04;72.34;100483.66;5026291;28;20132;-78
2022/08/04 02:06:55;;;;;;;8.43;3.80;;;;;;;22.00;72.52;100479.00;5027656;28;20077;-78
2022/08/04 02:09:29;;;;;;;11.00;4.22;;;;;;;21.88;73.32;100476.34;5030484;28;20049;-78
2022/08/04 02:12:03;;;;;;;11.80;4.13;;;;;;;21.73;73.90;100482.19;5031078;28;20077;-78
2022/08/04 02:14:42;;;;;;;10.68;3.90;;;;;;;21.63;74.42;100473.97;5028648;28;20053;-78
2022/08/04 02:17:11;;;;;;;7.90;3.72;;;;;;;21.55;74.76;100476.16;5024085;28;20702;-78
2022/08/04 02:19:54;;;;;;;11.13;3.80;;;;;;;21.42;74.87;100475.34;5028240;28;20080;-78
2022/08/04 02:22:22;;;;;;;7.70;4.25;;;;;;;21.32;75.28;100472.44;5029969;28;20146;-78
2022/08/04 02:24:53;;;;;;;10.40;3.78;;;;;;;21.33;75.24;100474.06;5035157;28;20128;-78
2022/08/04 02:27:28;;;;;;;7.82;4.32;;;;;;;21.29;75.56;100472.09;5028540;28;20077;-78
2022/08/04 02:29:59;;;;;;;6.07;3.70;;;;;;;21.18;75.88;100465.69;5033376;28;20112;-79
2022/08/04 02:32:27;;;;;;;7.90;4.20;;;;;;;21.16;75.79;100462.47;5025135;28;20539;-78
2022/08/04 02:35:03;;;;;;;9.38;3.70;;;;;;;21.12;75.67;100470.09;5030199;28;20504;-78
2022/08/04 02:37:31;;;;;;;7.07;3.63;;;;;;;21.24;75.63;100469.34;5026499;28;20084;-78
2022/08/04 02:40:01;;;;;;;7.55;3.75;;;;;;;21.23;75.48;100457.06;5038404;28;20149;-78
2022/08/04 02:42:29;;;;;;;11.57;4.00;;;;;;;21.18;75.80;100460.38;5025378;28;20099;-78
2022/08/04 02:44:58;;;;;;;11.10;3.72;;;;;;;21.12;76.29;100471.94;5033626;28;20136;-78
2022/08/04 02:47:26;;;;;;;10.75;4.30;;;;;;;21.11;76.41;100463.16;5039304;28;20045;-78
2022/08/04 02:49:56;;;;;;;13.38;4.50;;;;;;;21.14;76.58;100470.66;5026189;28;20510;-78
2022/08/04 02:52:25;;;;;;;9.88;4.15;;;;;;;21.15;76.50;100472.28;5026344;28;20081;-78
2022/08/04 02:54:54;;;;;;;10.30;4.38;;;;;;;21.14;76.60;100457.38;5029973;28;20531;-78
2022/08/04 02:57:24;;;;;;;10.25;3.80;;;;;;;21.09;75.92;100457.25;5027327;28;20429;-78
2022/08/04 03:00:06;;;;;;;7.93;3.90;;;;;;;21.00;76.28;100457.78;5023187;28;20045;-77
2022/08/04 03:02:46;;;;;;;6.97;3.80;;;;;;;20.99;76.58;100454.31;5023018;28;20052;-78
2022/08/04 03:05:18;;;;;;;7.22;4.07;;;;;;;20.98;76.45;100455.38;5031527;28;20304;-78
2022/08/04 03:08:06;;;;;;;13.07;4.22;;;;;;;20.99;76.56;100456.16;5037703;28;20044;-78
2022/08/04 03:11:04;;;;;;;13.00;4.57;;;;;;;20.94;76.86;100453.38;5030211;28;20132;-78
2022/08/04 03:14:03;;;;;;;10.27;4.03;;;;;;;20.92;77.24;100453.63;5034983;28;20088;-78
2022/08/04 03:17:00;;;;;;;9.40;4.10;;;;;;;20.85;77.85;100464.34;5035512;28;20049;-78
2022/08/04 03:20:11;;;;;;;8.32;4.15;;;;;;;20.77;77.94;100459.38;5031617;28;20053;-78
2022/08/04 03:23:07;;;;;;;10.27;4.45;;;;;;;20.81;78.15;100463.19;5030657;28;20515;-78
2022/08/04 03:25:53;;;;;;;10.15;4.20;;;;;;;20.73;78.43;100463.53;5021897;28;20100;-78
2022/08/04 03:28:44;;;;;;;6.35;3.90;;;;;;;20.67;78.65;100463.63;5022283;28;20524;-78
2022/08/04 03:31:34;;;;;;;13.93;4.60;;;;;;;20.65;78.86;100463.03;5031375;28;20073;-78
2022/08/04 03:34:14;;;;;;;7.15;4.10;;;;;;;20.63;79.18;100468.56;5022948;28;20049;-78
2022/08/04 03:37:11;;;;;;;7.03;4.40;;;;;;;20.60;79.41;100468.22;5043277;28;20075;-78
2022/08/04 03:40:22;;;;;;;11.93;4.80;;;;;;;20.66;79.39;100462.00;5035262;28;20041;-77
2022/08/04 03:43:19;;;;;;;8.73;4.72;;;;;;;20.67;79.67;100459.09;5031011;28;20050;-77
2022/08/04 03:46:08;;;;;;;7.85;4.60;;;;;;;20.59;80.09;100463.94;5004175;28;20080;-77
2022/08/04 03:49:09;;;;;;;12.35;4.90;;;;;;;20.48;80.61;100455.69;5026841;28;20106;-77
2022/08/04 03:54:50;;;;;;;12.98;4.88;;;;;;;20.49;80.98;100459.97;5021749;28;20104;-77
2022/08/04 03:57:52;;;;;;;11.95;5.20;;;;;;;20.46;81.15;100456.94;5025721;28;20077;-77
2022/08/04 04:00:21;;;;;;;11.05;4.95;;;;;;;20.41;81.41;100457.59;5027429;28;20077;-77
2022/08/04 04:03:23;;;;;;;10.55;5.15;;;;;;;20.38;81.61;100455.41;5034354;28;20085;-78
2022/08/04 04:06:24;;;;;;;15.73;5.38;;;;;;;20.26;82.15;100461.69;5026139;28;20045;-77
2022/08/04 04:09:25;;;;;;;10.82;5.20;;;;;;;20.26;82.27;100461.69;5022878;28;20118;-77
2022/08/04 04:12:19;;;;;;;7.60;4.90;;;;;;;20.25;82.56;100468.03;5031418;28;20080;-77
2022/08/04 04:15:02;;;;;;;8.10;5.00;;;;;;;20.32;82.64;100476.72;5023895;28;20109;-77
2022/08/04 04:17:56;;;;;;;9.82;5.15;;;;;;;20.38;82.83;100474.00;5023802;28;20053;-77
2022/08/04 04:20:33;;;;;;;9.30;5.20;;;;;;;20.50;82.41;100458.91;5029553;28;20122;-77
2022/08/04 04:23:24;;;;;;;9.75;5.28;;;;;;;20.65;82.08;100469.16;5028545;28;20103;-77
2022/08/04 04:26:06;;;;;;;10.10;4.80;;;;;;;21.08;80.65;100470.78;5023486;28;20149;-77
2022/08/04 04:28:50;;;;;;;9.43;4.85;;;;;;;21.15;80.13;100466.97;5019228;28;20058;-77
2022/08/04 04:31:38;;;;;;;11.38;5.90;;;;;;;21.10;79.91;100466.84;5026729;28;20048;-77
2022/08/04 04:34:20;;;;;;;17.92;5.18;;;;;;;21.12;79.78;100461.28;5033426;28;20100;-77
2022/08/04 04:36:58;;;;;;;9.23;4.88;;;;;;;21.23;79.14;100473.84;5036290;28;20591;-77
2022/08/04 04:39:32;;;;;;;11.70;5.13;;;;;;;21.38;78.84;100470.72;5029417;28;20049;-77
2022/08/04 04:42:18;;;;;;;16.20;5.85;;;;;;;21.56;78.13;100472.47;5028361;28;20041;-77
2022/08/04 04:45:12;;;;;;;23.05;6.03;;;;;;;21.78;77.11;100473.47;5027878;28;20105;-77
2022/08/04 04:47:50;;;;;;;23.83;5.90;;;;;;;21.85;76.52;100461.66;5024585;28;20085;-77
2022/08/04 04:50:32;;;;;;;19.85;6.07;;;;;;;21.84;76.34;100464.56;5032832;28;20049;-77
2022/08/04 04:53:11;;;;;;;15.88;5.45;;;;;;;21.79;76.18;100467.09;5031885;28;20653;-77
2022/08/04 04:55:45;;;;;;;13.32;5.38;;;;;;;21.82;76.18;100461.31;5032049;28;20504;-77
2022/08/04 04:58:16;;;;;;;7.78;5.13;;;;;;;22.05;75.17;100463.97;5028146;28;20169;-77
2022/08/04 05:01:00;;;;;;;7.60;5.03;;;;;;;22.17;74.70;100466.63;5030435;28;20464;-77
2022/08/04 05:03:56;;;;;;;12.73;4.70;;;;;;;22.54;73.21;100467.06;5030584;28;20124;-77
2022/08/04 05:06:45;;;;;;;18.77;5.47;;;;;;;22.83;72.09;100460.66;5071295;22;20497;-80
2022/08/04 05:09:41;;;;;;;15.80;5.15;;;;;;;22.78;71.98;100459.75;5063974;28;20056;-79
2022/08/04 05:12:35;;;;;;;11.20;4.95;;;;;;;22.99;71.32;100466.28;5065531;28;20084;-79
2022/08/04 05:15:14;;;;;;;13.15;5.60;;;;;;;23.00;71.34;100466.03;5061844;28;20128;-78
2022/08/04 05:17:45;;;;;;;14.48;5.40;;;;;;;22.94;71.63;100468.84;5069141;28;20087;-78
2022/08/04 05:20:16;;;;;;;14.70;5.45;;;;;;;23.40;70.70;100463.19;5075572;28;20040;-80
2022/08/04 05:22:48;;;;;;;10.48;4.90;;;;;;;24.00;68.80;100473.13;5076020;28;20090;-80
2022/08/04 05:25:22;;;;;;;18.90;5.30;;;;;;;24.40;67.21;100472.00;5065086;28;20112;-78
2022/08/04 05:27:55;;;;;;;11.95;5.07;;;;;;;24.61;66.29;100478.38;5076140;28;20083;-81
2022/08/04 05:30:26;;;;;;;8.45;4.68;;;;;;;24.89;65.08;100470.09;5077501;28;20041;-80
2022/08/04 05:33:00;;;;;;;8.90;4.95;;;;;;;25.56;63.32;100461.50;5075540;28;20083;-78
2022/08/04 05:35:33;;;;;;;13.50;5.13;;;;;;;26.03;62.01;100464.16;5086802;28;20059;-79
2022/08/04 05:38:03;;;;;;;12.55;5.13;;;;;;;26.55;60.58;100471.34;5092070;28;20064;-81
2022/08/04 05:40:30;;;;;;;11.05;5.47;;;;;;;27.26;58.67;100471.41;5078565;28;20079;-78
2022/08/04 05:43:02;;;;;;;17.15;5.38;;;;;;;27.79;57.71;100477.25;5069769;28;20049;-80
2022/08/04 05:45:33;;;;;;;;;;;;;;;28.21;55.81;100476.84;5076003;28;20071;-79
2022/08/04 05:48:01;;;;;;;14.70;5.35;;;;;;;28.26;56.30;100470.63;5071375;28;19933;-79
2022/08/04 05:50:30;;;;;;;10.13;5.20;;;;;;;27.72;57.30;100474.03;5071190;28;20106;-80
2022/08/04 05:53:01;;;;;;;12.52;5.28;;;;;;;27.96;56.67;100472.31;5064844;28;20529;-80
2022/08/04 05:55:29;;;;;;;13.40;5.20;;;;;;;27.38;58.80;100468.44;5074600;28;20097;-79
2022/08/04 05:57:56;;;;;;;10.27;4.80;;;;;;;27.62;58.08;100463.31;5071449;28;20080;-78
2022/08/04 06:00:25;;;;;;;11.38;5.85;;;;;;;27.18;59.35;100466.56;5062037;28;20040;-79
2022/08/04 06:02:55;;;;;;;10.55;5.55;;;;;;;28.58;56.51;100460.19;5070483;28;20446;-79
2022/08/04 06:05:23;;;;;;;11.35;5.70;;;;;;;28.85;55.50;100464.34;5070989;28;20521;-79
2022/08/04 06:07:51;;;;;;;8.18;5.47;;;;;;;29.25;54.23;100464.00;5067316;28;20075;-79
2022/08/04 06:10:18;;;;;;;13.32;5.78;;;;;;;29.94;53.30;100457.31;5072231;28;20128;-79
2022/08/04 06:12:49;;;;;;;15.45;5.80;;;;;;;28.95;54.74;100464.25;5070527;28;20080;-77
2022/08/04 06:15:20;;;;;;;11.83;5.43;;;;;;;29.70;53.59;100464.66;5072854;28;20522;-79
2022/08/04 06:17:49;;;;;;;11.57;6.10;;;;;;;29.07;54.60;100464.69;5072473;28;20469;-79
2022/08/04 06:20:18;;;;;;;9.38;5.55;;;;;;;29.04;55.02;100457.19;5073636;28;20127;-80
2022/08/04 06:22:50;;;;;;;16.33;5.80;;;;;;;29.38;53.79;100457.94;5074400;28;20048;-81
2022/08/04 06:25:24;;;;;;;11.00;5.72;;;;;;;28.93;55.17;100461.03;5068651;28;20044;-81
2022/08/04 06:27:51;;;;;;;6.93;5.40;;;;;;;29.23;54.17;100462.69;5072276;28;20648;-82
2022/08/04 06:30:19;;;;;;;11.65;5.40;;;;;;;29.17;53.75;100456.53;5066337;28;20080;-80
2022/08/04 06:32:54;;;;;;;13.27;5.63;;;;;;;29.74;52.46;100446.00;5069137;28;20106;-80
2022/08/04 06:35:21;;;;;;;8.95;5.57;;;;;;;29.42;53.14;100462.78;5068125;28;20049;-81
2022/08/04 06:37:49;;;;;;;13.77;5.47;;;;;;;29.64;52.10;100455.00;5066283;28;20144;-80
2022/08/04 06:40:19;;;;;;;17.52;5.47;;;;;;;29.09;53.66;100464.41;5071753;28;20079;-82
2022/08/04 06:42:48;;;;;;;7.82;5.07;;;;;;;29.49;53.08;100465.94;5066500;28;20140;-80
2022/08/04 06:45:16;;;;;;;8.93;5.45;;;;;;;29.57;52.47;100460.75;5065312;28;20130;-80
2022/08/04 06:47:44;;;;;;;8.80;5.53;;;;;;;29.61;52.59;100456.38;5074968;28;20048;-79
2022/08/04 06:50:12;;;;;;;7.55;5.65;;;;;;;30.96;50.03;100456.72;5069186;28;20079;-80
2022/08/04 06:52:39;;;;;;;8.80;5.60;;;;;;;30.31;51.11;100456.59;5075081;28;20494;-81
2022/08/04 06:55:08;;;;;;;6.25;5.07;;;;;;;30.17;51.78;100463.81;5080851;28;20067;-82
2022/08/04 06:57:37;;;;;;;10.80;5.40;;;;;;;30.51;50.84;100458.22;5080811;28;20053;-82
2022/08/04 07:00:08;;;;;;;10.18;6.32;;;;;;;31.17;49.79;100469.91;5070344;28;20049;-83
2022/08/04 07:02:40;;;;;;;7.55;5.32;;;;;;;30.61;50.10;100457.28;5068003;28;20190;-83
2022/08/04 07:05:08;;;;;;;12.45;5.35;;;;;;;31.53;48.59;100460.03;5065536;28;20105;-83
2022/08/04 07:07:35;;;;;;;7.40;5.10;;;;;;;30.25;50.44;100456.94;5071295;28;20052;-83
2022/08/04 07:10:02;;;;;;;12.90;6.18;;;;;;;30.92;50.59;100452.19;5070877;28;20076;-81
2022/08/04 07:12:30;;;;;;;15.90;5.70;;;;;;;30.07;51.20;100452.34;5064660;28;20064;-81
2022/08/04 07:15:00;;;;;;;10.70;6.22;;;;;;;30.69;50.58;100456.63;5071389;28;20045;-81
2022/08/04 07:17:29;;;;;;;8.52;5.30;;;;;;;30.43;50.28;100466.16;5076877;28;20053;-82
2022/08/04 07:19:58;;;;;;;10.65;5.60;;;;;;;30.46;50.94;100455.59;5076205;28;20136;-81
2022/08/04 07:22:26;;;;;;;15.02;6.03;;;;;;;31.01;50.13;100455.81;5073982;28;20059;-82
2022/08/04 07:24:55;;;;;;;12.68;5.18;;;;;;;31.51;49.30;100459.53;5079235;28;20052;-80
2022/08/04 07:27:22;;;;;;;9.93;5.40;;;;;;;30.50;50.48;100458.50;5073907;28;20257;-82
2022/08/04 07:29:50;;;;;;;12.45;5.25;;;;;;;29.78;52.30;100450.50;5075619;28;20518;-82
2022/08/04 07:32:19;;;;;;;12.68;5.10;;;;;;;30.15;51.65;100455.22;5075352;28;20120;-82
2022/08/04 07:34:48;;;;;;;8.93;5.85;;;;;;;31.30;50.05;100459.09;5078322;28;20048;-81
2022/08/04 07:37:15;;;;;;;11.00;5.47;;;;;;;31.32;49.41;100456.09;5075557;28;20051;-83
2022/08/04 07:39:42;;;;;;;14.43;5.70;;;;;;;30.49;50.51;100463.09;5082293;28;20048;-82
2022/08/04 07:42:15;;;;;;;9.32;5.47;;;;;;;31.52;49.51;100454.94;5076881;28;20044;-81
2022/08/04 07:44:45;;;;;;;10.95;5.82;;;;;;;31.83;48.34;100455.97;5079561;28;20104;-81
2022/08/04 07:47:12;;;;;;;18.90;5.35;;;;;;;32.77;47.28;100457.97;5076057;28;20053;-82
2022/08/04 07:49:41;;;;;;;17.45;5.63;;;;;;;32.31;47.55;100466.34;5076636;28;20048;-83
2022/08/04 07:52:08;;;;;;;8.23;5.68;;;;;;;31.70;48.42;100455.97;5072102;28;20067;-81
2022/08/04 07:54:36;;;;;;;13.18;5.40;;;;;;;31.44;49.21;100458.34;5069307;28;20106;-81
2022/08/04 07:57:03;;;;;;;12.57;5.72;;;;;;;31.95;47.46;100456.25;5064815;28;20083;-80
2022/08/04 07:59:29;;;;;;;19.30;6.05;;;;;;;33.05;46.71;100457.84;5067856;28;20048;-80
2022/08/04 08:02:00;;;;;;;17.52;6.13;;;;;;;33.37;45.63;100468.41;5075044;28;20064;-81
2022/08/04 08:04:28;;;;;;;9.93;5.80;;;;;;;33.67;44.63;100463.22;5075428;28;20048;-79
2022/08/04 08:06:57;;;;;;;20.88;6.53;;;;;;;32.19;46.91;100468.72;5069083;28;20102;-81
2022/08/04 08:09:24;;;;;;;24.35;6.35;;;;;;;33.81;44.51;100464.75;5069908;28;20044;-81
2022/08/04 08:11:53;;;;;;;18.35;5.85;;;;;;;34.21;44.05;100454.59;5076014;28;20072;-78
2022/08/04 08:14:20;;;;;;;16.63;5.90;;;;;;;35.17;42.10;100471.66;5056799;28;20106;-78
2022/08/04 08:16:46;;;;;;;14.48;5.43;;;;;;;35.12;42.17;100460.97;5078303;28;20133;-82
2022/08/04 08:19:14;;;;;;;11.85;5.72;;;;;;;34.42;43.26;100459.44;5074190;28;20079;-82
2022/08/04 08:21:47;;;;;;;13.90;5.60;;;;;;;34.60;42.77;100456.38;5071882;28;20097;-80
2022/08/04 08:24:15;;;;;;;15.27;5.90;;;;;;;35.32;41.49;100452.13;5072350;28;20132;-82
2022/08/04 08:26:42;;;;;;;11.18;5.43;;;;;;;34.26;42.76;100449.00;5080082;28;20056;-80
2022/08/04 08:29:09;;;;;;;13.43;5.75;;;;;;;33.40;44.40;100448.00;5064549;28;20114;-79
2022/08/04 08:31:36;;;;;;;14.55;5.78;;;;;;;34.55;42.57;100445.69;5073888;28;20064;-79
2022/08/04 08:34:03;;;;;;;13.45;5.40;;;;;;;34.65;42.03;100444.56;5064750;28;20136;-80
2022/08/04 08:36:37;;;;;;;15.50;5.30;;;;;;;35.28;41.91;100447.63;5072390;28;20419;-79
2022/08/04 08:39:09;;;;;;;10.43;5.57;;;;;;;35.47;41.01;100446.13;5073427;28;20044;-80
2022/08/04 08:42:15;;;;;;;18.15;5.72;;;;;;;34.40;42.29;100432.59;5075330;28;20106;-79
2022/08/04 08:45:14;;;;;;;12.48;5.50;;;;;;;33.75;43.86;100436.13;5061077;28;20425;-79
2022/08/04 08:48:03;;;;;;;11.60;5.30;;;;;;;34.64;43.05;100431.28;5074360;28;20080;-80
2022/08/04 08:51:11;;;;;;;12.77;5.28;;;;;;;34.07;43.46;100428.69;5077122;28;20604;-79
2022/08/04 08:54:08;;;;;;;13.77;5.43;;;;;;;33.60;43.95;100431.13;5066667;28;20049;-79
2022/08/04 08:56:44;;;;;;;12.07;5.05;;;;;;;34.12;43.25;100425.84;5077102;28;20055;-79
2022/08/04 08:59:35;;;;;;;23.27;7.20;;;;;;;33.91;43.11;100426.47;5078796;28;20049;-82
2022/08/04 09:02:32;;;;;;;11.70;5.18;;;;;;;33.77;42.64;100431.19;5079425;28;20044;-81
2022/08/04 09:05:24;;;;;;;12.23;5.07;;;;;;;34.91;41.82;100431.75;5061962;28;20044;-80
2022/08/04 09:08:19;;;;;;;9.13;4.80;;;;;;;34.84;40.46;100436.88;5075167;28;20139;-79
2022/08/04 09:10:49;;;;;;;8.65;4.40;;;;;;;35.26;39.75;100437.88;5073888;28;20076;-81
2022/08/04 09:13:23;;;;;;;10.52;4.38;;;;;;;35.63;39.84;100440.94;5066239;28;20082;-81
2022/08/04 09:16:02;;;;;;;12.40;5.03;;;;;;;35.70;39.91;100435.78;5073267;28;20044;-79
2022/08/04 09:18:36;;;;;;;10.82;4.97;;;;;;;36.37;39.06;100437.59;5072752;28;20126;-79
2022/08/04 09:21:11;;;;;;;13.27;4.85;;;;;;;36.79;37.98;100434.84;5065281;28;20064;-80
2022/08/04 09:23:51;;;;;;;12.57;5.20;;;;;;;37.30;36.73;100435.41;5080549;28;20040;-80
2022/08/04 09:26:25;;;;;;;10.13;4.88;;;;;;;36.64;37.17;100436.22;5074903;28;20041;-80
2022/08/04 09:29:03;;;;;;;8.13;4.53;;;;;;;38.06;36.57;100440.13;5081034;28;20123;-80
2022/08/04 09:31:38;;;;;;;14.27;5.40;;;;;;;37.31;35.94;100432.34;5075037;28;20094;-80
2022/08/04 09:34:13;;;;;;;13.52;4.47;;;;;;;36.76;36.59;100432.78;5083173;28;20060;-82
2022/08/04 09:37:12;;;;;;;12.18;4.53;;;;;;;36.43;37.28;100414.44;5085922;28;20106;-83
2022/08/04 09:39:46;;;;;;;9.18;4.30;;;;;;;36.60;37.25;100415.44;5064274;28;20462;-81
2022/08/04 09:42:22;;;;;;;14.95;4.82;;;;;;;36.42;37.52;100420.22;5088216;28;20049;-83
2022/08/04 09:45:00;;;;;;;14.65;4.55;;;;;;;35.56;37.32;100419.66;5074231;28;20053;-83
2022/08/04 09:47:34;;;;;;;16.75;4.45;;;;;;;35.75;38.03;100432.88;5077579;28;20067;-82
2022/08/04 09:50:09;;;;;;;11.75;4.15;;;;;;;36.16;37.35;100431.34;5075268;28;20045;-82
2022/08/04 09:52:44;;;;;;;5.78;3.90;;;;;;;36.48;35.46;100438.78;5077341;28;20040;-82
2022/08/04 09:55:22;;;;;;;8.32;3.50;;;;;;;35.69;33.61;100412.41;5082516;28;20053;-83
2022/08/04 09:57:57;;;;;;;17.00;3.47;;;;;;;36.00;34.14;100438.50;5088704;28;20047;-82
2022/08/04 10:00:30;;;;;;;4.20;3.58;;;;;;;35.97;34.38;100430.97;5089209;28;20067;-82
2022/08/04 10:03:01;;;;;;;7.50;3.50;;;;;;;35.83;34.50;100437.50;5083346;28;20082;-84
2022/08/04 10:05:48;;;;;;;11.98;4.20;;;;;;;35.84;35.35;100451.91;5082468;28;20078;-82
2022/08/04 10:08:29;;;;;;;8.45;3.60;;;;;;;35.49;35.27;100435.72;5078462;28;20112;-82
2022/08/04 10:11:05;;;;;;;9.60;3.90;;;;;;;35.50;35.26;100452.84;5076805;28;20056;-82
2022/08/04 10:13:48;;;;;;;10.00;4.20;;;;;;;35.04;36.14;100456.34;5083587;28;20053;-81
2022/08/04 10:16:32;;;;;;;17.98;3.92;;;;;;;35.04;36.88;100446.25;5073310;28;20116;-82
2022/08/04 10:19:09;;;;;;;8.05;4.00;;;;;;;34.91;37.17;100442.63;5079453;28;20103;-82
2022/08/04 10:21:45;;;;;;;13.02;4.53;;;;;;;34.99;36.97;100446.44;5082238;28;20044;-82
2022/08/04 10:24:28;;;;;;;8.75;3.85;;;;;;;34.73;36.77;100446.47;5081165;28;20053;-82
2022/08/04 10:27:01;;;;;;;11.48;4.68;;;;;;;35.07;37.66;100445.59;5081172;28;20044;-82
2022/08/04 10:29:32;;;;;;;13.05;4.13;;;;;;;35.00;37.39;100456.19;5084771;28;20074;-82
2022/08/04 10:32:03;;;;;;;12.35;4.65;;;;;;;34.95;37.39;100456.38;5079574;28;20088;-82
2022/08/04 10:34:39;;;;;;;13.43;4.28;;;;;;;35.02;37.83;100459.38;5081694;28;20082;-81
2022/08/04 10:37:18;;;;;;;10.95;3.75;;;;;;;35.18;37.51;100452.31;5077220;28;20109;-82
2022/08/04 10:42:41;;;;;;;7.90;3.75;;;;;;;35.20;37.02;100455.50;5078785;28;20108;-83
2022/08/04 10:45:14;;;;;;;13.05;3.70;;;;;;;34.84;37.60;100452.41;5081024;28;20044;-82
2022/08/04 10:47:50;;;;;;;10.00;3.30;;;;;;;35.54;37.16;100453.78;5079905;28;20056;-83
2022/08/04 10:50:23;;;;;;;9.45;3.83;;;;;;;35.49;36.83;100457.47;5078552;28;20075;-82
2022/08/04 10:53:00;;;;;;;8.30;3.50;;;;;;;35.54;37.16;100468.19;5078911;28;20051;-83
2022/08/04 10:55:33;;;;;;;6.38;3.42;;;;;;;35.44;36.56;100460.41;5070112;28;20072;-82
2022/08/04 10:58:02;;;;;;;12.65;3.92;;;;;;;35.37;36.57;100457.41;5075134;28;20082;-82
2022/08/04 11:00:31;;;;;;;12.85;3.60;;;;;;;35.29;36.57;100465.56;5084055;28;20045;-84
2022/08/04 11:03:05;;;;;;;21.30;4.57;;;;;;;35.02;36.79;100464.81;5086226;28;20091;-84
2022/08/04 11:05:39;;;;;;;15.77;3.80;;;;;;;34.83;37.19;100469.81;5099065;22;20245;-78
2022/08/04 11:08:11;;;;;;;9.45;4.03;;;;;;;34.50;37.63;100470.28;5049129;28;20057;-78
2022/08/04 11:10:45;;;;;;;7.47;4.22;;;;;;;34.10;38.25;100472.31;5053797;28;20151;-79
2022/08/04 11:13:16;;;;;;;8.98;4.30;;;;;;;34.09;38.94;100453.63;5057904;28;20132;-79
2022/08/04 11:15:51;;;;;;;8.88;4.10;;;;;;;34.50;39.19;100475.72;5053548;28;20328;-80
2022/08/04 11:18:26;;;;;;;5.85;3.88;;;;;;;34.31;39.61;100483.41;5036833;28;20536;-79
2022/08/04 11:21:03;;;;;;;9.35;4.00;;;;;;;33.91;40.00;100485.38;5037548;28;20049;-79
2022/08/04 11:23:35;;;;;;;15.98;4.03;;;;;;;33.90;40.36;100481.06;5037748;28;20053;-80
2022/08/04 11:26:09;;;;;;;18.40;5.22;;;;;;;33.76;40.24;100492.00;5037229;28;20053;-80
2022/08/04 11:28:48;;;;;;;8.10;3.67;;;;;;;33.64;39.97;100491.78;5037380;28;20053;-79
2022/08/04 11:31:21;;;;;;;8.15;4.00;;;;;;;33.92;39.55;100495.94;5037720;28;20123;-80
2022/08/04 11:34:04;;;;;;;7.97;4.03;;;;;;;34.41;40.13;100488.53;5037386;28;20077;-79
2022/08/04 11:36:40;;;;;;;7.25;3.67;;;;;;;34.40;39.25;100500.50;5036839;28;20050;-78
2022/08/04 11:39:12;;;;;;;7.63;4.22;;;;;;;34.12;40.10;100501.84;5038550;28;20136;-78
2022/08/04 11:41:49;;;;;;;8.40;3.55;;;;;;;33.67;40.05;100507.44;5037980;28;20049;-80
2022/08/04 11:44:26;;;;;;;8.57;3.75;;;;;;;33.76;41.03;100524.56;5038285;28;20535;-79
2022/08/04 11:47:11;;;;;;;7.78;3.42;;;;;;;33.38;41.38;100518.00;5037011;28;20076;-79
2022/08/04 11:49:46;;;;;;;8.27;4.10;;;;;;;32.70;41.13;100484.66;5038029;28;20057;-81
2022/08/04 11:52:21;;;;;;;10.80;3.85;;;;;;;32.44;43.48;100486.38;5037690;28;20065;-81
2022/08/04 11:54:53;;;;;;;14.98;4.00;;;;;;;32.08;44.42;100467.38;5038181;28;20049;-79
2022/08/04 11:57:21;;;;;;;;;;;;;;;32.37;42.88;100485.97;5037455;28;20049;-80
2022/08/04 11:59:51;;;;;;;7.68;3.90;;;;;;;31.96;43.72;100476.78;5037221;28;20403;-80
2022/08/04 12:02:50;;;;;;;8.05;3.95;;;;;;;32.44;43.36;100498.00;5037567;28;20049;-80
2022/08/04 12:05:21;;;;;;;9.90;3.90;;;;;;;32.91;42.46;100502.06;5037374;28;20052;-80
2022/08/04 12:07:59;;;;;;;7.95;4.10;;;;;;;32.93;42.60;100493.63;5037253;28;20187;-79
2022/08/04 12:10:45;;;;;;;11.10;4.18;;;;;;;32.83;43.54;100499.28;5033414;28;20049;-80